Nissho Maru — JD2650 — position and weather

sailwx.info

Track history (hours):
 
Tides and Currents Weather Stations Pressure Air Temp Water Temp Dewpoint Dewpoint Depression Visibility Wind Speed Wind Dir Waves Ship Positions

Nissho Maru

Last reported at 2016-Jul-23 21:19 UTC. Time now 2016-Jul-30 02:00 UTC.
Position N 34°44' E 139°39'.

Length 75 m.

Type: Cargo ship. MMSI: 431000572.

Date/timePositionNaut miles runAvg speedWind from/ knotsBaromVisibWave heightAir tempDewpointWater temp
2016-Jul-23 21:19N 34°44' E 139°39'2112.1
2016-Jul-23 19:33N 34°55' E 140°01'3112.6
2016-Jul-23 17:06N 35°15' E 140°31'1012.1
2016-Jul-23 16:16N 35°23' E 140°38'  
2016-Jul-17 16:33N 36°44' E 141°12'1212.2
2016-Jul-17 15:33N 36°32' E 141°08'1212.2
2016-Jul-17 14:33N 36°21' E 141°04'1411.9
2016-Jul-17 13:24N 36°07' E 141°02'1411.7
2016-Jul-17 12:10N 35°53' E 140°59'812.0
2016-Jul-17 11:31N 35°45' E 140°57'1212.0
2016-Jul-17 10:33N 35°35' E 140°49'1312.6
2016-Jul-17 09:33N 35°25' E 140°40'3213.1
2016-Jul-17 07:05N 35°01' E 140°13'612.2
2016-Jul-17 06:33N 34°58' E 140°07'  
Track history (hours):
 
Tides and Currents Weather Stations Pressure Air Temp Water Temp Dewpoint Dewpoint Depression Visibility Wind Speed Wind Dir Waves Ship Positions

Nissho Maru

Last reported at 2016-Jul-23 21:19 UTC. Time now 2016-Jul-30 02:00 UTC.
Position N 34°44' E 139°39'.

Length 75 m.

Type: Cargo ship. MMSI: 431000572.

Date/timePositionNaut miles runAvg speedWind from/ knotsBaromVisibWave heightAir tempDewpointWater temp
2016-Jul-23 21:19N 34°44' E 139°39'2112.1
2016-Jul-23 19:33N 34°55' E 140°01'3112.6
2016-Jul-23 17:06N 35°15' E 140°31'1012.1
2016-Jul-23 16:16N 35°23' E 140°38'  
2016-Jul-17 16:33N 36°44' E 141°12'1212.2
2016-Jul-17 15:33N 36°32' E 141°08'1212.2
2016-Jul-17 14:33N 36°21' E 141°04'1411.9
2016-Jul-17 13:24N 36°07' E 141°02'1411.7
2016-Jul-17 12:10N 35°53' E 140°59'812.0
2016-Jul-17 11:31N 35°45' E 140°57'1212.0
2016-Jul-17 10:33N 35°35' E 140°49'1312.6
2016-Jul-17 09:33N 35°25' E 140°40'3213.1
2016-Jul-17 07:05N 35°01' E 140°13'612.2
2016-Jul-17 06:33N 34°58' E 140°07'  

Dump ship's entire track history